Chicago, Illinois
Traffic Map
Current Weather Conditions
Chicago, Illinois
Scattered Clouds
Scattered Clouds
83°
Feels Like: 83°
Wind Chill: 83° Ceiling: Unl
Heat Index: 83° Visibility: 10mi
Dew Point: 49° Wind: 15mph
Humidity: 31% Direction: 320° (NW)
Pressure: 29.85in Gusts: 0mph
Raw Report DataKMDW 031853Z 32013KT 10SM FEW060 SCT250 28/09 A2985 RMK AO2 SLP099 T02830094
Traffic Incident Summary
Active as of:
Severity:
Category:
InformationThere was an issue retrieving the traffic information for this location. Please try a different location or try again shortly.
Advertisements
Track Severe Weather on mobile